Eagle County Regional Airport
KEGE : rendu visible

Aérodrome :











RETROUVEZ-NOUS SUR...

 
LOGIN :

S'inscrire | Disclaimer

   EN    FR    IT 

 









Légende :    VFR   VFR Marginal   IFR   IFR Intensif   IFR Très Intensif
Visi : 
Plafond : 
>= 8 km
>= 3000ft
5 à 8 km
1000 à 3000 ft
1500m à 5 km
500 à 1000 ft
800 à 1500m
200 à 500 ft
< 800m
< 200 ft
Symboles :   Orages  Brouillard  Fortes neiges  Fortes précipitations  Vent > 20 kt






- Altitude de l'aérodrome : 6548 ft
- Code IATA : EGE


KEGE - Eagle County Regional

DERNIER METAR :
  • 191456Z 00000KT 10SM CLR M05/M07 A3009 RMK AO2 SLP227 T10501067 52006

METARs EXPIRÉS :
  • 191356Z 14003KT 10SM CLR M06/M07 A3009 RMK AO2 SLP222 T10561072
  • 191256Z AUTO 13003KT 10SM CLR M06/M07 A3008 RMK AO2 SLP212 T10561072 FZRANO

TAF KEGE
Valide du 19 à 12h jusqu'au 20 à 12h UTC


191126Z 1912/2012 VRB03KT P6SM SCT200
FM191900 23005KT P6SM FEW250
FM200100 20005KT P6SM FEW250
FM200600 VRB03KT P6SM BKN120



MET'MAP, la Météo Aéronautique d'un coup d'oeil ! - Copyright ORBIFLY Décembre 2007 - Disclaimer

ORBIFLY MET'MAP TEAM :

Programmation & Développement : Alexandra Zaïnal
Conception & Développement : Baudouin d'Aumeries
Co-Programmation & Développement : Marc-Olivier Méhu
Soutien technique & logistique : Manuel Goepfert

Contact : metmap@orbifly.com




SOURCES & CREDITS :

   NOAA       Earth
Advisory